Santa Maria Pub/Capt G Allan Hancock Field
KSMX : rendu visible

Aérodrome :











RETROUVEZ-NOUS SUR...

 
LOGIN :

S'inscrire | Disclaimer

   EN    FR    IT 

 









Légende :    VFR   VFR Marginal   IFR   IFR Intensif   IFR Très Intensif
Visi : 
Plafond : 
>= 8 km
>= 3000ft
5 à 8 km
1000 à 3000 ft
1500m à 5 km
500 à 1000 ft
800 à 1500m
200 à 500 ft
< 800m
< 200 ft
Symboles :   Orages  Brouillard  Fortes neiges  Fortes précipitations  Vent > 20 kt






- Altitude de l'aérodrome : 261 ft
- Code IATA : SMX


KSMX - Santa Maria Pub/Capt G Allan Hancock Field

DERNIER METAR :
  • 210751Z AUTO 16006KT 7SM OVC036 10/08 A2974 RMK AO2 SLP071 T01000078 401720089 TSNO

METARs EXPIRÉS :
  • 210651Z AUTO 17006KT 6SM BR OVC033 10/08 A2972 RMK AO2 SLP067 T01000078 TSNO
  • 210551Z AUTO 19004KT 6SM BR OVC030 11/09 A2970 RMK AO2 SLP060 T01060089 10144 20100 53013 TSNO
  • 210530Z AUTO 16004KT 6SM BR OVC030 11/09 A2969 RMK AO2 T01110089 TSNO

TAF KSMX
Valide du 21 à 06h jusqu'au 22 à 06h UTC


210601Z 2106/2206 16005KT P6SM OVC022
FM210900 VRB03KT P6SM OVC017
FM211730 16005KT P6SM BKN022
FM212000 29008KT P6SM BKN025 OVC040
FM220300 VRB03KT P6SM BKN012



MET'MAP, la Météo Aéronautique d'un coup d'oeil ! - Copyright ORBIFLY Décembre 2007 - Disclaimer

ORBIFLY MET'MAP TEAM :

Programmation & Développement : Alexandra Zaïnal
Conception & Développement : Baudouin d'Aumeries
Co-Programmation & Développement : Marc-Olivier Méhu
Soutien technique & logistique : Manuel Goepfert

Contact : metmap@orbifly.com




SOURCES & CREDITS :

   NOAA       Earth
Advisory